Austinville, Virginia
Current Conditions -  °F | °C
As of 11:35 AM on Monday 26 Jan 2015 (Local Time) from KHLX Reporting Station
Unknown Precip Unknown Precip  
Wind Chill: 29°   Ceiling: 400
Heat Index: 36°   Visibility: 10mi
Dew Point: 35°   Wind: 10mph
Humidity: 96%   Direction: 310°NW
Pressure: 29.63"   Gusts: NA
Location:  36.85°N, 80.91°W
Report Text: KHLX 261635Z AUTO 31009KT 10SM UP OVC004 02/02 A2963 RMK AO2 T00230017
Loading
Personal Weather Stations






























Interactive Weather Map New forecast layout! Learn more

10-Day Weather Forecast

Advertisements
Track Severe Weather on mobile